Flight Track Log - Related Links

Times and Time Zones

All times are in EDT time to prevent confusion due to time zone crossing. See the CES2612 flight status page for this flight to view local times or setup timezone preferences in your user account.

Time Position Orientation Groundspeed Altitude Reporting Facility
EDT Latitude Longitude Course Direction KTS MPH feet Rate Location/Type
Tue 10:15:00 AM 30.8079 111.9855 271° West  Level Estimated
Tue 10:16:00 AM 30.8081 111.8797 270° West  Level Estimated
Tue 10:17:00 AM 30.8083 111.7738 270° West  Level Estimated
Tue 10:18:00 AM 30.8083 111.6679 270° West  Level Estimated
Tue 10:19:00 AM 30.8082 111.5621 270° West  Level Estimated
Tue 10:20:00 AM 30.8081 111.4562 270° West  Level Estimated
Tue 10:21:00 AM 30.8079 111.3504 270° West  Level Estimated
Tue 10:22:00 AM 30.8076 111.2445 270° West  Level Estimated
Tue 10:23:00 AM 30.8072 111.1386 270° West  Level Estimated
Tue 10:24:00 AM 30.8067 111.0328 270° West  Level Estimated
Tue 10:25:00 AM 30.8061 110.9269 270° West  Level Estimated
Tue 10:26:00 AM 30.8055 110.8211 270° West  Level Estimated
Tue 10:27:00 AM 30.8047 110.7152 270° West  Level Estimated
Tue 10:28:00 AM 30.8039 110.6094 270° West  Level Estimated
Tue 10:29:00 AM 30.8030 110.5035 269° West  Level Estimated
Tue 10:30:00 AM 30.8020 110.3977 269° West  Level Estimated
Tue 10:31:00 AM 30.8009 110.2919 269° West  Level Estimated
Tue 10:32:00 AM 30.7997 110.1860 269° West  Level Estimated
Tue 10:33:00 AM 30.7985 110.0802 269° West  Level Estimated
Tue 10:34:00 AM 30.7971 109.9743 269° West  Level Estimated
Tue 10:35:00 AM 30.7957 109.8685 269° West  Level Estimated
Tue 10:36:00 AM 30.7942 109.7627 269° West  Level Estimated
Tue 10:37:00 AM 30.7926 109.6569 269° West  Level Estimated
Tue 10:38:00 AM 30.7909 109.5510 269° West  Level Estimated
Tue 10:39:00 AM 30.7891 109.4452 269° West  Level Estimated
Tue 10:40:00 AM 30.7873 109.3394 269° West  Level Estimated
Tue 10:41:00 AM 30.7853 109.2336 269° West  Level Estimated
Tue 10:42:00 AM 30.7833 109.1278 269° West  Level Estimated
Tue 10:43:00 AM 30.7812 109.0220 269° West  Level Estimated
Tue 10:44:00 AM 30.7790 108.9162 269° West  Level Estimated
Tue 10:45:00 AM 30.7767 108.8104 269° West  Level Estimated
Tue 10:46:00 AM 30.7743 108.7046 269° West  Level Estimated
Tue 10:47:00 AM 30.7718 108.5988 268° West  Level Estimated
Tue 10:48:00 AM 30.7693 108.4931 268° West  Level Estimated
Tue 10:49:00 AM 30.7667 108.3873 268° West  Level Estimated
Tue 10:50:00 AM 30.7639 108.2815 268° West  Level Estimated
Tue 10:51:00 AM 30.7611 108.1758 268° West  Level Estimated
Tue 10:52:00 AM 30.7582 108.0700 268° West  Level Estimated
Tue 10:53:00 AM 30.7553 107.9643 268° West  Level Estimated
Tue 10:54:00 AM 30.7522 107.8586 268° West  Level Estimated
Tue 10:55:00 AM 30.7491 107.7528 268° West  Level Estimated
Tue 10:56:00 AM 30.7458 107.6471 268° West  Level Estimated
Tue 10:57:00 AM 30.7425 107.5414 268° West  Level Estimated
Tue 10:58:00 AM 30.7391 107.4357 268° West  Level Estimated
Tue 10:59:00 AM 30.7356 107.3300 268° West  Level Estimated
Tue 11:00:00 AM 30.7320 107.2243 268° West  Level Estimated
Tue 11:01:00 AM 30.7284 107.1186 268° West  Level Estimated
Tue 11:02:00 AM 30.7246 107.0129 268° West  Level Estimated
Tue 11:03:00 AM 30.7208 106.9072 268° West  Level Estimated
Tue 11:04:00 AM 30.7169 106.8016 268° West  Level Estimated
Tue 11:05:00 AM 30.7129 106.6959 268° West  Level Estimated
Tue 11:06:00 AM 30.7088 106.5903 267° West  Level Estimated
Tue 11:07:00 AM 30.7046 106.4847 267° West  Level Estimated
Tue 11:08:00 AM 30.7004 106.3790 267° West  Level Estimated
Tue 11:09:00 AM 30.6960 106.2734 267° West  Level Estimated
Tue 11:10:00 AM 30.6916 106.1678 267° West  Level Estimated
Tue 11:11:00 AM 30.6871 106.0622 267° West  Level Estimated
Tue 11:12:00 AM 30.6825 105.9566 267° West  Level Estimated
Tue 11:13:00 AM 30.6778 105.8510 267° West  Level Estimated
Tue 11:14:00 AM 30.6730 105.7455 267° West  Level Estimated
Tue 11:15:00 AM 30.6681 105.6399 267° West  Level Estimated
Tue 11:16:00 AM 30.6632 105.5344 267° West  Level Estimated
Tue 11:17:00 AM 30.6582 105.4288 267° West  Level Estimated
Tue 11:18:00 AM 30.6531 105.3233 267° West  Level Estimated
Tue 11:19:00 AM 30.6479 105.2178 267° West  Level Estimated
Tue 11:20:00 AM 30.6426 105.1123 267° West  Level Estimated
Tue 11:21:00 AM 30.6372 105.0068 267° West  Level Estimated
Tue 11:22:00 AM 30.6318 104.9013 267° West  Level Estimated
Tue 11:23:00 AM 30.6262 104.7959 267° West  Level Estimated
Tue 11:24:00 AM 30.6206 104.6904 266° West  Level Estimated
Tue 11:25:00 AM 30.6149 104.5850 266° West  Level Estimated
Tue 11:26:00 AM 30.6091 104.4796 266° West  Level Estimated
Tue 11:27:00 AM 30.6032 104.3742 266° West  Level Estimated
Tue 11:28:00 AM 30.5973 104.2688 266° West  Level Estimated
Tue 11:29:00 AM 30.5912 104.1634 266° West  Level Estimated
Tue 11:30:00 AM 30.5851 104.0580 266° West  Level Estimated
Tue 11:31:00 AM 30.5789 103.9526 266° West  Level Estimated
Tue 11:32:00 AM 30.5785 103.9471 266° West  Level Estimated
Tue 11:33:00 AM 30.5785 103.9471 240° Southwest  Level Estimated
Tue 11:34:00 AM 30.5785 103.9471 240° Southwest  Level Estimated
Tue 11:35:00 AM 30.5785 103.9471 240° Southwest  Level Estimated
Tue 11:36:00 AM 30.5785 103.9471 240° Southwest  Level Estimated
Tue 11:37:00 AM 30.5785 103.9471 240° Southwest  Level Estimated
Tue 11:38:00 AM 30.5785 103.9471 240° Southwest  Level Estimated
Tue 11:39:00 AM 30.5785 103.9471 240° Southwest  Level Estimated
Tue 11:40:00 AM 30.5785 103.9471 240° Southwest  Level Estimated
Tue 11:41:00 AM 30.5785 103.9471 240° Southwest  Level Estimated
Tue 11:42:00 AM 30.5785 103.9471 240° Southwest  Level Estimated
Tue 11:43:00 AM 30.5785 103.9471 240° Southwest  Level Estimated
Tue 11:44:00 AM 30.5785 103.9471 240° Southwest  Level Estimated
Tue 11:45:00 AM 30.5785 103.9471 240° Southwest  Level Estimated
Tue 11:46:00 AM 30.5785 103.9471 240° Southwest  Level Estimated
Tue 11:47:00 AM 30.5785 103.9471 240° Southwest  Level Estimated

Login

Don't have an account? Register now (free) for customized features, flight alerts, and more!